createdAt,value
2023-03-11T00:01:47.331Z,3.33
2023-03-11T00:04:15.751Z,2.90
2023-03-11T00:06:50.596Z,3.10
2023-03-11T00:09:25.840Z,2.73
2023-03-11T00:12:09.303Z,2.70
2023-03-11T00:14:37.600Z,3.13
2023-03-11T00:17:12.575Z,2.83
2023-03-11T00:19:41.063Z,3.17
2023-03-11T00:22:16.299Z,3.10
2023-03-11T00:24:44.580Z,2.80
2023-03-11T00:27:21.303Z,2.83
2023-03-11T00:29:49.761Z,2.97
2023-03-11T00:32:25.651Z,2.77
2023-03-11T00:34:54.382Z,2.90
2023-03-11T00:37:29.303Z,2.90
2023-03-11T00:39:57.780Z,2.57
2023-03-11T00:42:34.311Z,2.87
2023-03-11T00:45:02.810Z,3.10
2023-03-11T00:47:37.436Z,3.30
2023-03-11T00:50:06.746Z,2.90
2023-03-11T00:52:41.338Z,2.90
2023-03-11T00:55:11.613Z,2.83
2023-03-11T00:57:48.607Z,3.10
2023-03-11T01:00:18.903Z,3.13
2023-03-11T01:02:54.383Z,2.50
2023-03-11T01:05:25.558Z,2.87
2023-03-11T01:08:00.334Z,2.73
2023-03-11T01:10:35.812Z,2.70
2023-03-11T01:13:12.383Z,2.93
2023-03-11T01:15:41.280Z,3.20
2023-03-11T01:18:16.417Z,3.47
2023-03-11T01:20:45.191Z,3.70
2023-03-11T01:23:21.386Z,4.50
2023-03-11T01:25:50.087Z,4.27
2023-03-11T01:28:26.703Z,4.07
2023-03-11T01:30:55.125Z,4.07
2023-03-11T01:33:30.642Z,4.37
2023-03-11T01:35:59.096Z,4.07
2023-03-11T01:38:34.606Z,4.40
2023-03-11T01:41:03.624Z,4.73
2023-03-11T01:44:02.443Z,3.87
2023-03-11T01:46:34.775Z,4.00
2023-03-11T01:49:11.356Z,3.93
2023-03-11T01:51:43.269Z,3.40
2023-03-11T01:54:21.650Z,3.80
2023-03-11T01:56:51.303Z,4.20
2023-03-11T01:59:32.669Z,3.67
2023-03-11T02:02:12.910Z,3.73
2023-03-11T02:04:49.377Z,3.37
2023-03-11T02:07:18.494Z,3.87
2023-03-11T02:09:53.735Z,3.53
2023-03-11T02:12:22.623Z,3.43
2023-03-11T02:15:01.714Z,4.03
2023-03-11T02:17:30.249Z,3.70
2023-03-11T02:20:18.770Z,4.20
2023-03-11T02:22:47.611Z,3.60
2023-03-11T02:25:31.643Z,3.57
2023-03-11T02:28:04.686Z,3.80
2023-03-11T02:30:42.416Z,3.40
2023-03-11T02:33:11.826Z,3.37
2023-03-11T02:35:46.450Z,2.87
2023-03-11T02:38:15.246Z,3.00
2023-03-11T02:40:58.409Z,3.10
2023-03-11T02:43:35.048Z,3.27
2023-03-11T02:46:11.467Z,3.60
2023-03-11T02:48:40.543Z,3.20
2023-03-11T02:51:15.438Z,3.00
2023-03-11T02:53:48.994Z,3.20
2023-03-11T02:56:24.453Z,3.10
2023-03-11T02:58:54.784Z,2.93
2023-03-11T03:01:30.440Z,2.97
2023-03-11T03:04:06.285Z,3.47
2023-03-11T03:06:41.448Z,3.00
2023-03-11T03:09:09.892Z,2.67
2023-03-11T03:11:44.372Z,2.73
2023-03-11T03:14:20.722Z,2.83
2023-03-11T03:16:49.355Z,2.83
2023-03-11T03:19:24.706Z,2.80
2023-03-11T03:21:53.620Z,2.93
2023-03-11T03:24:28.435Z,2.63
2023-03-11T03:26:56.893Z,3.20
2023-03-11T03:29:33.435Z,3.10
2023-03-11T03:32:02.011Z,3.07
2023-03-11T03:34:37.638Z,2.90
2023-03-11T03:37:06.627Z,3.00
2023-03-11T03:39:41.464Z,3.47
2023-03-11T03:42:10.089Z,3.27
2023-03-11T03:44:46.485Z,3.40
2023-03-11T03:47:15.306Z,2.97
2023-03-11T03:49:50.726Z,3.07
2023-03-11T03:52:19.183Z,3.30
2023-03-11T03:54:54.486Z,2.70
2023-03-11T03:57:23.171Z,3.17
2023-03-11T03:59:59.503Z,3.03
2023-03-11T04:02:47.526Z,3.03
2023-03-11T04:05:22.540Z,3.30
2023-03-11T04:07:51.120Z,3.33
2023-03-11T04:10:26.773Z,2.93
2023-03-11T04:12:55.303Z,2.97
2023-03-11T04:15:32.509Z,3.13
2023-03-11T04:18:01.091Z,2.87
2023-03-11T04:20:36.504Z,3.00
2023-03-11T04:23:05.055Z,3.10
2023-03-11T04:25:40.855Z,2.57
2023-03-11T04:28:09.312Z,3.10
2023-03-11T04:30:47.809Z,3.20
2023-03-11T04:33:16.260Z,3.17
2023-03-11T04:35:51.854Z,3.43
2023-03-11T04:38:20.294Z,3.10
2023-03-11T04:40:55.581Z,3.07
2023-03-11T04:43:24.002Z,3.50
2023-03-11T04:46:00.562Z,2.97
2023-03-11T04:48:29.006Z,3.33
2023-03-11T04:51:04.491Z,2.80
2023-03-11T04:53:32.953Z,3.13
2023-03-11T04:56:07.570Z,3.30
2023-03-11T04:58:36.281Z,3.27
2023-03-11T05:01:13.853Z,3.37
2023-03-11T05:03:49.106Z,3.17
2023-03-11T05:06:24.553Z,3.03
2023-03-11T05:08:53.009Z,3.47
2023-03-11T05:11:27.513Z,3.47
2023-03-11T05:13:56.001Z,3.20
2023-03-11T05:16:32.557Z,3.53
2023-03-11T05:19:01.373Z,3.53
2023-03-11T05:21:36.872Z,3.30
2023-03-11T05:24:06.159Z,3.50
2023-03-11T05:26:41.564Z,3.30
2023-03-11T05:29:10.069Z,3.20
2023-03-11T05:31:46.624Z,3.30
2023-03-11T05:34:15.634Z,3.73
2023-03-11T05:36:50.835Z,3.30
2023-03-11T05:39:19.312Z,3.73
2023-03-11T05:41:54.947Z,3.30
2023-03-11T05:44:23.514Z,3.67
2023-03-11T05:47:00.007Z,4.00
2023-03-11T05:49:29.059Z,3.70
2023-03-11T05:52:04.981Z,3.73
2023-03-11T05:54:33.801Z,3.67
2023-03-11T05:57:08.945Z,3.80
2023-03-11T05:59:38.225Z,3.97
2023-03-11T06:02:14.889Z,4.03
2023-03-11T06:04:50.184Z,3.77
2023-03-11T06:07:25.601Z,4.43
2023-03-11T06:09:54.509Z,4.17
2023-03-11T06:12:29.646Z,4.40
2023-03-11T06:14:58.088Z,4.10
2023-03-11T06:17:34.886Z,4.60
2023-03-11T06:20:04.934Z,4.47
2023-03-11T06:22:40.331Z,4.27
2023-03-11T06:25:09.712Z,4.20
2023-03-11T06:27:44.863Z,4.17
2023-03-11T06:30:14.544Z,4.30
2023-03-11T06:32:52.003Z,4.20
2023-03-11T06:35:20.654Z,3.73
2023-03-11T06:37:55.949Z,3.83
2023-03-11T06:40:24.348Z,4.43
2023-03-11T06:42:59.614Z,4.33
2023-03-11T06:45:28.192Z,4.17
2023-03-11T06:48:04.678Z,4.30
2023-03-11T06:50:33.117Z,4.33
2023-03-11T06:53:09.909Z,4.30
2023-03-11T06:55:38.566Z,4.07
2023-03-11T06:58:13.709Z,4.90
2023-03-11T07:00:42.803Z,5.27
2023-03-11T07:03:26.790Z,4.50
2023-03-11T07:06:02.098Z,4.07
2023-03-11T07:08:37.712Z,4.50
2023-03-11T07:11:08.824Z,4.50
2023-03-11T07:13:44.964Z,4.63
2023-03-11T07:16:17.000Z,6.70
2023-03-11T07:18:55.709Z,7.80
2023-03-11T07:21:24.952Z,6.13
2023-03-11T07:24:02.951Z,5.50
2023-03-11T07:26:32.518Z,4.90
2023-03-11T07:29:08.783Z,4.80
2023-03-11T07:31:38.156Z,4.53
2023-03-11T07:34:18.849Z,4.40
2023-03-11T07:36:47.459Z,4.67
2023-03-11T07:39:24.668Z,4.27
2023-03-11T07:41:53.820Z,4.20
2023-03-11T07:44:29.078Z,6.00
2023-03-11T07:46:57.450Z,5.43
2023-03-11T07:49:33.976Z,5.17
2023-03-11T07:52:02.903Z,4.50
2023-03-11T07:54:37.978Z,4.33
2023-03-11T07:57:07.688Z,4.30
2023-03-11T07:59:42.676Z,4.60
2023-03-11T08:02:12.313Z,4.37
2023-03-11T08:04:55.037Z,5.50
2023-03-11T08:07:23.663Z,5.23
2023-03-11T08:09:58.759Z,4.50
2023-03-11T08:12:27.256Z,4.33
2023-03-11T08:15:02.725Z,4.17
2023-03-11T08:17:31.676Z,4.53
2023-03-11T08:20:08.706Z,4.20
2023-03-11T08:22:43.424Z,4.20
2023-03-11T08:25:24.994Z,4.30
2023-03-11T08:27:53.503Z,4.17
2023-03-11T08:30:29.032Z,4.30
2023-03-11T08:32:57.683Z,4.50
2023-03-11T08:35:34.756Z,3.67
2023-03-11T08:38:03.749Z,4.00
2023-03-11T08:40:38.729Z,4.33
2023-03-11T08:43:08.026Z,4.17
2023-03-11T08:45:42.759Z,3.90
2023-03-11T08:48:16.272Z,3.90
2023-03-11T08:50:54.634Z,3.93
2023-03-11T08:53:23.482Z,3.90
2023-03-11T08:55:59.054Z,3.67
2023-03-11T08:58:27.993Z,3.57
2023-03-11T09:01:04.003Z,3.13
2023-03-11T09:03:40.391Z,2.90
2023-03-11T09:06:25.767Z,3.17
2023-03-11T09:08:54.629Z,2.47
2023-03-11T09:11:29.751Z,2.17
2023-03-11T09:13:58.695Z,2.70
2023-03-11T09:16:33.838Z,2.50
2023-03-11T09:19:07.033Z,2.00
2023-03-11T09:21:44.023Z,2.00
2023-03-11T09:24:23.832Z,2.00
2023-03-11T09:26:58.989Z,1.70
2023-03-11T09:29:28.638Z,1.30
2023-03-11T09:32:03.795Z,1.37
2023-03-11T09:34:32.723Z,1.17
2023-03-11T09:37:09.826Z,1.20
2023-03-11T09:39:38.473Z,1.20
2023-03-11T09:42:24.068Z,1.60
2023-03-11T09:45:05.043Z,1.50
2023-03-11T09:47:40.226Z,1.20
2023-03-11T09:50:25.772Z,1.53
2023-03-11T09:53:20.269Z,1.30
2023-03-11T09:55:57.835Z,1.43
2023-03-11T09:58:37.733Z,1.27
2023-03-11T10:01:22.871Z,1.50
2023-03-11T10:03:59.487Z,1.30
2023-03-11T10:06:41.132Z,1.30
2023-03-11T10:09:28.610Z,1.17
2023-03-11T10:12:24.795Z,1.50
2023-03-11T10:15:16.595Z,1.33
2023-03-11T10:18:11.847Z,1.57
2023-03-11T10:20:47.861Z,1.30
2023-03-11T10:23:32.797Z,2.20
2023-03-11T10:26:14.100Z,1.23
2023-03-11T10:28:55.129Z,1.23
2023-03-11T10:31:28.110Z,1.37
2023-03-11T10:34:08.165Z,1.40
2023-03-11T10:36:42.156Z,1.40
2023-03-11T10:39:19.824Z,1.07
2023-03-11T10:41:55.068Z,1.40
2023-03-11T10:44:36.127Z,1.27
2023-03-11T10:47:04.569Z,1.30
2023-03-11T10:49:40.095Z,1.20
2023-03-11T10:52:08.769Z,1.20
2023-03-11T10:54:45.808Z,1.50
2023-03-11T10:57:28.232Z,1.87
2023-03-11T11:00:03.830Z,1.50
2023-03-11T11:02:34.252Z,1.10
2023-03-11T11:05:42.191Z,1.43
2023-03-11T11:08:16.058Z,1.30
2023-03-11T11:10:58.911Z,1.53
2023-03-11T11:13:32.796Z,1.47
2023-03-11T11:16:08.824Z,1.40
2023-03-11T11:18:43.981Z,1.40
2023-03-11T11:21:23.893Z,1.70
2023-03-11T11:24:04.001Z,1.20
2023-03-11T11:26:39.860Z,1.27
2023-03-11T11:29:17.196Z,1.57
2023-03-11T11:31:55.153Z,1.50
2023-03-11T11:34:30.535Z,1.50
2023-03-11T11:37:08.888Z,1.63
2023-03-11T11:39:52.206Z,1.30
2023-03-11T11:42:29.153Z,1.37
2023-03-11T11:45:06.205Z,1.57
2023-03-11T11:47:43.926Z,1.40
2023-03-11T11:50:18.437Z,1.57
2023-03-11T11:52:57.876Z,1.30
2023-03-11T11:55:29.014Z,1.20
2023-03-11T11:58:05.164Z,1.60
2023-03-11T12:00:45.428Z,1.30
2023-03-11T12:03:50.216Z,1.50
2023-03-11T12:06:32.384Z,1.30
2023-03-11T12:09:18.256Z,1.47
2023-03-11T12:11:56.511Z,1.20
2023-03-11T12:14:38.913Z,1.50
2023-03-11T12:17:12.716Z,1.40
2023-03-11T12:19:52.873Z,1.37
2023-03-11T12:22:54.258Z,1.40
2023-03-11T12:25:39.909Z,1.57
2023-03-11T12:28:20.969Z,1.40
2023-03-11T12:30:59.001Z,1.50
2023-03-11T12:33:34.905Z,1.43
2023-03-11T12:36:11.258Z,1.50
2023-03-11T12:38:42.086Z,1.53
2023-03-11T12:41:35.906Z,1.60
2023-03-11T12:44:25.833Z,1.53
2023-03-11T12:47:25.998Z,1.40
2023-03-11T12:50:04.229Z,1.40
2023-03-11T12:52:34.443Z,1.60
2023-03-11T12:55:40.989Z,1.30
2023-03-11T12:58:38.896Z,1.47
2023-03-11T13:01:42.966Z,1.40
2023-03-11T13:04:43.452Z,1.43
2023-03-11T13:07:57.914Z,1.40
2023-03-11T13:10:39.609Z,1.57
2023-03-11T13:13:47.314Z,1.50
2023-03-11T13:16:37.947Z,1.40
2023-03-11T13:19:54.029Z,1.37
2023-03-11T13:22:42.790Z,1.33
2023-03-11T13:25:47.232Z,1.40
2023-03-11T13:28:31.293Z,1.60
2023-03-11T13:31:22.161Z,1.20
2023-03-11T13:34:00.997Z,1.47
2023-03-11T13:36:52.293Z,1.20
2023-03-11T13:39:56.703Z,1.60
2023-03-11T13:42:38.052Z,1.33
2023-03-11T13:45:18.416Z,1.77
2023-03-11T13:47:55.953Z,1.23
2023-03-11T13:50:29.566Z,1.37
2023-03-11T13:53:07.006Z,1.50
2023-03-11T13:55:37.973Z,1.60
2023-03-11T13:58:23.042Z,1.20
2023-03-11T14:00:54.625Z,1.30
2023-03-11T14:03:31.993Z,1.10
2023-03-11T14:06:09.778Z,1.30
2023-03-11T14:08:46.293Z,1.27
2023-03-11T14:11:19.104Z,1.20
2023-03-11T14:13:58.026Z,1.47
2023-03-11T14:16:33.629Z,1.60
2023-03-11T14:19:15.006Z,1.37
2023-03-11T14:21:44.218Z,1.33
2023-03-11T14:24:25.020Z,1.27
2023-03-11T14:26:55.747Z,1.53
2023-03-11T14:29:39.023Z,1.40
2023-03-11T14:32:25.334Z,1.60
2023-03-11T14:35:00.377Z,1.50
2023-03-11T14:37:34.458Z,1.60
2023-03-11T14:40:10.044Z,1.50
2023-03-11T14:42:40.424Z,1.20
2023-03-11T14:45:23.060Z,1.10
2023-03-11T14:47:55.127Z,1.60
2023-03-11T14:50:32.100Z,1.70
2023-03-11T14:53:04.817Z,1.40
2023-03-11T14:55:42.124Z,1.60
2023-03-11T14:58:16.919Z,1.40
2023-03-11T15:00:58.149Z,1.37
2023-03-11T15:03:48.072Z,1.30
2023-03-11T15:06:25.094Z,1.30
2023-03-11T15:08:59.592Z,1.20
2023-03-11T15:11:36.069Z,1.40
2023-03-11T15:14:18.480Z,1.13
2023-03-11T15:16:56.195Z,1.50
2023-03-11T15:19:31.615Z,1.37
2023-03-11T15:22:10.059Z,1.20
2023-03-11T15:24:38.492Z,1.33
2023-03-11T15:27:15.067Z,1.20
2023-03-11T15:29:52.650Z,1.40
2023-03-11T15:32:43.105Z,1.40
2023-03-11T15:35:18.713Z,1.30
2023-03-11T15:37:55.090Z,1.73
2023-03-11T15:40:42.405Z,1.70
2023-03-11T15:43:30.452Z,1.40
2023-03-11T15:46:00.425Z,1.40
2023-03-11T15:48:38.130Z,1.20
2023-03-11T15:51:06.853Z,1.80
2023-03-11T15:53:42.162Z,1.40
2023-03-11T15:56:15.675Z,1.17
2023-03-11T15:58:51.113Z,1.27
2023-03-11T16:01:23.972Z,1.40
2023-03-11T16:04:01.561Z,1.43
2023-03-11T16:06:36.472Z,1.10
2023-03-11T16:09:12.146Z,1.50
2023-03-11T16:11:42.121Z,1.30
2023-03-11T16:14:24.375Z,1.23
2023-03-11T16:16:53.185Z,1.80
2023-03-11T16:19:30.154Z,1.30
2023-03-11T16:21:59.096Z,1.50
2023-03-11T16:24:34.122Z,1.53
2023-03-11T16:27:02.678Z,2.07
2023-03-11T16:29:38.174Z,1.50
2023-03-11T16:32:07.068Z,1.27
2023-03-11T16:34:44.174Z,1.30
2023-03-11T16:37:17.415Z,1.60
2023-03-11T16:39:52.099Z,5.80
2023-03-11T16:42:24.545Z,4.30
2023-03-11T16:44:59.509Z,1.90
2023-03-11T16:47:28.303Z,3.23
2023-03-11T16:50:05.159Z,7.63
2023-03-11T16:52:33.704Z,6.40
2023-03-11T16:55:08.161Z,4.90
2023-03-11T16:57:38.177Z,2.90
2023-03-11T17:00:16.165Z,2.20
2023-03-11T17:02:45.027Z,1.60
2023-03-11T17:05:28.445Z,1.60
2023-03-11T17:08:01.186Z,1.50
2023-03-11T17:10:37.456Z,1.30
2023-03-11T17:13:06.239Z,1.43
2023-03-11T17:15:42.468Z,1.80
2023-03-11T17:18:11.559Z,1.50
2023-03-11T17:20:50.221Z,1.30
2023-03-11T17:23:19.015Z,1.87
2023-03-11T17:25:54.458Z,2.00
2023-03-11T17:28:22.868Z,1.70
2023-03-11T17:30:58.518Z,1.85
2023-03-11T17:33:27.157Z,2.30
2023-03-11T17:36:10.210Z,2.27
2023-03-11T17:38:38.975Z,1.70
2023-03-11T17:41:17.263Z,1.47
2023-03-11T17:43:46.849Z,1.40
2023-03-11T17:46:24.277Z,1.47
2023-03-11T17:48:53.597Z,1.73
2023-03-11T17:51:32.249Z,1.40
2023-03-11T17:54:01.411Z,1.50
2023-03-11T17:56:36.208Z,1.60
2023-03-11T17:59:04.857Z,1.50
2023-03-11T18:01:40.246Z,1.50
2023-03-11T18:04:28.495Z,1.57
2023-03-11T18:07:05.211Z,1.63
2023-03-11T18:09:55.336Z,1.67
2023-03-11T18:12:30.686Z,1.60
2023-03-11T18:15:05.595Z,2.10
2023-03-11T18:17:35.643Z,1.97
2023-03-11T18:20:11.226Z,1.90
2023-03-11T18:22:44.416Z,1.97
2023-03-11T18:25:21.234Z,1.70
2023-03-11T18:27:49.786Z,1.90
2023-03-11T18:30:25.574Z,1.70
2023-03-11T18:32:54.130Z,2.00
2023-03-11T18:35:30.300Z,1.90
2023-03-11T18:38:00.223Z,1.80
2023-03-11T18:40:36.539Z,2.50
2023-03-11T18:43:05.485Z,2.03
2023-03-11T18:45:40.579Z,2.10
2023-03-11T18:48:08.788Z,1.87
2023-03-11T18:50:44.285Z,2.23
2023-03-11T18:53:14.436Z,1.97
2023-03-11T18:55:49.240Z,2.30
2023-03-11T18:58:17.712Z,2.33
2023-03-11T19:00:53.307Z,2.43
2023-03-11T19:03:21.889Z,2.30
2023-03-11T19:06:03.393Z,2.27
2023-03-11T19:08:33.269Z,2.10
2023-03-11T19:11:08.556Z,2.07
2023-03-11T19:13:47.156Z,2.40
2023-03-11T19:16:24.691Z,2.27
2023-03-11T19:18:54.224Z,2.23
2023-03-11T19:21:29.597Z,2.37
2023-03-11T19:24:00.626Z,2.40
2023-03-11T19:26:44.207Z,2.50
2023-03-11T19:29:14.198Z,2.87
2023-03-11T19:31:50.589Z,2.70
2023-03-11T19:34:21.361Z,2.50
2023-03-11T19:36:56.373Z,2.67
2023-03-11T19:39:30.949Z,2.47
2023-03-11T19:42:06.339Z,2.57
2023-03-11T19:44:35.176Z,2.73
2023-03-11T19:47:10.328Z,2.97
2023-03-11T19:49:39.184Z,3.07
2023-03-11T19:52:16.856Z,3.10
2023-03-11T19:54:48.328Z,2.93
2023-03-11T19:57:24.699Z,3.00
2023-03-11T19:59:53.191Z,2.47
2023-03-11T20:02:28.701Z,2.40
2023-03-11T20:05:04.056Z,2.37
2023-03-11T20:07:45.830Z,2.27
2023-03-11T20:10:17.529Z,2.53
2023-03-11T20:13:02.229Z,3.10
2023-03-11T20:15:31.400Z,3.00
2023-03-11T20:18:07.691Z,3.23
2023-03-11T20:20:39.481Z,3.27
2023-03-11T20:23:15.023Z,3.33
2023-03-11T20:25:44.947Z,3.87
2023-03-11T20:28:20.719Z,4.17
2023-03-11T20:30:55.489Z,3.30
2023-03-11T20:33:24.288Z,3.03
2023-03-11T20:35:59.478Z,3.60
2023-03-11T20:38:28.129Z,4.90
2023-03-11T20:41:05.404Z,5.87
2023-03-11T20:43:34.469Z,5.70
2023-03-11T20:46:10.460Z,6.27
2023-03-11T20:48:40.080Z,5.87
2023-03-11T20:51:17.509Z,6.23
2023-03-11T20:53:46.134Z,5.10
2023-03-11T20:56:25.790Z,5.13
2023-03-11T20:58:55.944Z,4.13
2023-03-11T21:01:33.514Z,3.83
2023-03-11T21:04:09.979Z,4.37
2023-03-11T21:06:51.429Z,3.60
2023-03-11T21:09:21.042Z,3.47
2023-03-11T21:11:57.989Z,3.57
2023-03-11T21:14:26.636Z,3.33
2023-03-11T21:17:01.801Z,2.97
2023-03-11T21:19:30.240Z,2.97
2023-03-11T21:22:05.601Z,2.73
2023-03-11T21:24:34.229Z,2.50
2023-03-11T21:27:10.397Z,2.67
2023-03-11T21:29:39.175Z,2.53
2023-03-11T21:32:14.532Z,2.67
2023-03-11T21:34:43.306Z,3.03
2023-03-11T21:37:18.737Z,2.67
2023-03-11T21:39:47.419Z,2.73
2023-03-11T21:42:24.478Z,2.83
2023-03-11T21:44:53.063Z,2.43
2023-03-11T21:47:28.488Z,2.83
2023-03-11T21:49:57.266Z,2.50
2023-03-11T21:52:32.410Z,2.70
2023-03-11T21:55:00.985Z,2.80
2023-03-11T21:57:37.592Z,2.73
2023-03-11T22:00:09.955Z,2.50
2023-03-11T22:02:45.436Z,2.43
2023-03-11T22:05:20.888Z,2.67
2023-03-11T22:08:02.736Z,2.97
2023-03-11T22:10:32.435Z,2.57
2023-03-11T22:13:08.820Z,2.50
2023-03-11T22:15:37.542Z,2.90
2023-03-11T22:18:12.512Z,2.90
2023-03-11T22:20:42.258Z,2.97
2023-03-11T22:23:17.726Z,2.80
2023-03-11T22:25:46.313Z,3.20
2023-03-11T22:28:22.493Z,2.67
2023-03-11T22:30:51.753Z,3.30
2023-03-11T22:33:26.516Z,2.87
2023-03-11T22:35:57.186Z,3.07
2023-03-11T22:38:32.550Z,2.40
2023-03-11T22:41:01.124Z,2.70
2023-03-11T22:43:37.432Z,2.97
2023-03-11T22:46:07.827Z,2.80
2023-03-11T22:48:43.797Z,2.70
2023-03-11T22:51:13.045Z,2.87
2023-03-11T22:53:48.482Z,2.70
2023-03-11T22:56:18.932Z,2.83
2023-03-11T22:58:55.615Z,3.13
2023-03-11T23:01:24.166Z,2.97
2023-03-11T23:03:59.498Z,2.77
2023-03-11T23:06:34.978Z,2.57
2023-03-11T23:09:11.532Z,2.90
2023-03-11T23:11:39.966Z,2.60
2023-03-11T23:14:16.524Z,2.57
2023-03-11T23:16:45.393Z,2.43
2023-03-11T23:19:20.817Z,2.60
2023-03-11T23:21:49.277Z,2.80
2023-03-11T23:24:24.793Z,2.83
2023-03-11T23:26:54.646Z,2.90
2023-03-11T23:29:31.499Z,3.10
2023-03-11T23:32:00.317Z,2.80
2023-03-11T23:34:35.962Z,2.90
2023-03-11T23:37:05.539Z,2.97
2023-03-11T23:39:40.538Z,3.30
2023-03-11T23:42:24.541Z,2.77
2023-03-11T23:45:02.558Z,3.00
2023-03-11T23:47:31.048Z,3.10
2023-03-11T23:50:06.524Z,3.17
2023-03-11T23:52:35.812Z,3.10
2023-03-11T23:55:10.523Z,2.93
2023-03-11T23:57:39.206Z,3.33
